sensor_id;sensor_type;location;lat;lon;timestamp;temperature;humidity
4584;DHT22;2304;47.606;12.186;2022-08-21T00:03:57;18.60;93.80
4584;DHT22;2304;47.606;12.186;2022-08-21T00:08:59;18.80;94.00
4584;DHT22;2304;47.606;12.186;2022-08-21T00:14:02;18.50;94.50
4584;DHT22;2304;47.606;12.186;2022-08-21T00:19:05;18.50;95.70
4584;DHT22;2304;47.606;12.186;2022-08-21T00:24:07;18.50;95.20
4584;DHT22;2304;47.606;12.186;2022-08-21T00:29:09;18.50;95.20
4584;DHT22;2304;47.606;12.186;2022-08-21T00:34:13;18.50;95.10
4584;DHT22;2304;47.606;12.186;2022-08-21T00:39:15;18.50;95.30
4584;DHT22;2304;47.606;12.186;2022-08-21T00:44:17;18.40;95.70
4584;DHT22;2304;47.606;12.186;2022-08-21T00:49:20;18.40;95.80
4584;DHT22;2304;47.606;12.186;2022-08-21T00:54:24;18.40;96.00
4584;DHT22;2304;47.606;12.186;2022-08-21T00:59:28;18.40;95.80
4584;DHT22;2304;47.606;12.186;2022-08-21T01:04:34;18.40;96.00
4584;DHT22;2304;47.606;12.186;2022-08-21T01:09:38;18.50;96.30
4584;DHT22;2304;47.606;12.186;2022-08-21T01:14:41;18.40;95.60
4584;DHT22;2304;47.606;12.186;2022-08-21T01:19:45;18.40;95.00
4584;DHT22;2304;47.606;12.186;2022-08-21T01:24:48;18.40;94.80
4584;DHT22;2304;47.606;12.186;2022-08-21T01:29:54;18.50;95.40
4584;DHT22;2304;47.606;12.186;2022-08-21T01:34:57;18.40;95.40
4584;DHT22;2304;47.606;12.186;2022-08-21T01:40:01;18.40;94.90
4584;DHT22;2304;47.606;12.186;2022-08-21T01:45:04;18.40;95.00
4584;DHT22;2304;47.606;12.186;2022-08-21T01:50:08;18.20;94.80
4584;DHT22;2304;47.606;12.186;2022-08-21T01:55:14;18.20;95.80
4584;DHT22;2304;47.606;12.186;2022-08-21T02:00:18;18.20;96.50
4584;DHT22;2304;47.606;12.186;2022-08-21T02:05:23;18.30;96.10
4584;DHT22;2304;47.606;12.186;2022-08-21T02:10:29;18.30;95.30
4584;DHT22;2304;47.606;12.186;2022-08-21T02:15:31;18.60;94.50
4584;DHT22;2304;47.606;12.186;2022-08-21T02:20:36;18.30;94.20
4584;DHT22;2304;47.606;12.186;2022-08-21T02:25:40;18.50;94.90
4584;DHT22;2304;47.606;12.186;2022-08-21T02:30:46;18.20;95.40
4584;DHT22;2304;47.606;12.186;2022-08-21T02:35:49;18.30;95.60
4584;DHT22;2304;47.606;12.186;2022-08-21T02:40:53;18.60;95.50
4584;DHT22;2304;47.606;12.186;2022-08-21T02:45:56;18.40;95.20
4584;DHT22;2304;47.606;12.186;2022-08-21T02:51:00;18.30;94.90
4584;DHT22;2304;47.606;12.186;2022-08-21T02:56:08;18.40;95.00
4584;DHT22;2304;47.606;12.186;2022-08-21T03:01:11;18.30;94.50
4584;DHT22;2304;47.606;12.186;2022-08-21T03:06:14;18.40;94.60
4584;DHT22;2304;47.606;12.186;2022-08-21T03:11:18;18.30;95.20
4584;DHT22;2304;47.606;12.186;2022-08-21T03:16:21;18.50;95.40
4584;DHT22;2304;47.606;12.186;2022-08-21T03:21:23;18.20;95.20
4584;DHT22;2304;47.606;12.186;2022-08-21T03:26:26;18.20;95.30
4584;DHT22;2304;47.606;12.186;2022-08-21T03:31:28;18.30;96.70
4584;DHT22;2304;47.606;12.186;2022-08-21T03:36:32;18.40;95.70
4584;DHT22;2304;47.606;12.186;2022-08-21T03:41:35;18.50;94.10
4584;DHT22;2304;47.606;12.186;2022-08-21T03:46:37;18.50;92.90
4584;DHT22;2304;47.606;12.186;2022-08-21T03:51:39;18.40;93.00
4584;DHT22;2304;47.606;12.186;2022-08-21T03:56:43;18.30;92.80
4584;DHT22;2304;47.606;12.186;2022-08-21T04:01:52;18.60;94.30
4584;DHT22;2304;47.606;12.186;2022-08-21T04:06:54;18.40;93.30
4584;DHT22;2304;47.606;12.186;2022-08-21T04:11:58;18.30;92.60
4584;DHT22;2304;47.606;12.186;2022-08-21T04:17:00;18.30;93.20
4584;DHT22;2304;47.606;12.186;2022-08-21T04:22:02;18.40;93.90
4584;DHT22;2304;47.606;12.186;2022-08-21T04:27:05;18.10;94.10
4584;DHT22;2304;47.606;12.186;2022-08-21T04:32:07;18.20;94.20
4584;DHT22;2304;47.606;12.186;2022-08-21T04:37:09;18.00;94.40
4584;DHT22;2304;47.606;12.186;2022-08-21T04:42:12;18.00;94.40
4584;DHT22;2304;47.606;12.186;2022-08-21T04:47:15;18.00;94.30
4584;DHT22;2304;47.606;12.186;2022-08-21T04:52:21;18.10;94.80
4584;DHT22;2304;47.606;12.186;2022-08-21T04:57:25;18.10;94.70
4584;DHT22;2304;47.606;12.186;2022-08-21T05:02:27;18.00;94.80
4584;DHT22;2304;47.606;12.186;2022-08-21T05:07:30;18.10;94.70
4584;DHT22;2304;47.606;12.186;2022-08-21T05:12:34;18.20;94.30
4584;DHT22;2304;47.606;12.186;2022-08-21T05:17:36;18.20;93.40
4584;DHT22;2304;47.606;12.186;2022-08-21T05:22:38;18.20;93.30
4584;DHT22;2304;47.606;12.186;2022-08-21T05:27:41;18.20;93.30
4584;DHT22;2304;47.606;12.186;2022-08-21T05:32:43;18.30;92.90
4584;DHT22;2304;47.606;12.186;2022-08-21T05:37:45;18.40;92.50
4584;DHT22;2304;47.606;12.186;2022-08-21T05:42:48;18.30;92.80
4584;DHT22;2304;47.606;12.186;2022-08-21T05:47:50;18.40;92.60
4584;DHT22;2304;47.606;12.186;2022-08-21T05:52:52;18.40;92.40
4584;DHT22;2304;47.606;12.186;2022-08-21T05:57:55;18.50;92.20
4584;DHT22;2304;47.606;12.186;2022-08-21T06:02:57;18.50;91.20
4584;DHT22;2304;47.606;12.186;2022-08-21T06:07:59;18.50;91.30
4584;DHT22;2304;47.606;12.186;2022-08-21T06:13:02;18.60;91.60
4584;DHT22;2304;47.606;12.186;2022-08-21T06:18:05;18.80;90.50
4584;DHT22;2304;47.606;12.186;2022-08-21T06:23:07;18.70;90.20
4584;DHT22;2304;47.606;12.186;2022-08-21T06:28:11;18.70;90.70
4584;DHT22;2304;47.606;12.186;2022-08-21T06:33:12;18.80;90.90
4584;DHT22;2304;47.606;12.186;2022-08-21T06:38:14;18.90;90.40
4584;DHT22;2304;47.606;12.186;2022-08-21T06:43:18;18.90;90.80
4584;DHT22;2304;47.606;12.186;2022-08-21T06:48:20;18.80;88.40
4584;DHT22;2304;47.606;12.186;2022-08-21T06:53:22;18.90;87.90
4584;DHT22;2304;47.606;12.186;2022-08-21T06:58:25;19.20;86.90
4584;DHT22;2304;47.606;12.186;2022-08-21T07:03:29;19.40;84.30
4584;DHT22;2304;47.606;12.186;2022-08-21T07:08:31;19.60;82.40
4584;DHT22;2304;47.606;12.186;2022-08-21T07:13:34;19.50;80.10
4584;DHT22;2304;47.606;12.186;2022-08-21T07:18:36;19.70;80.70
4584;DHT22;2304;47.606;12.186;2022-08-21T07:23:40;19.90;79.60
4584;DHT22;2304;47.606;12.186;2022-08-21T07:28:44;20.00;78.00
4584;DHT22;2304;47.606;12.186;2022-08-21T07:33:46;20.20;78.10
4584;DHT22;2304;47.606;12.186;2022-08-21T07:38:48;20.30;77.20
4584;DHT22;2304;47.606;12.186;2022-08-21T07:43:51;20.40;76.00
4584;DHT22;2304;47.606;12.186;2022-08-21T07:48:54;20.50;74.50
4584;DHT22;2304;47.606;12.186;2022-08-21T07:53:57;20.70;74.20
4584;DHT22;2304;47.606;12.186;2022-08-21T07:59:01;20.90;74.80
4584;DHT22;2304;47.606;12.186;2022-08-21T08:04:03;21.10;74.40
4584;DHT22;2304;47.606;12.186;2022-08-21T08:09:05;21.10;72.20
4584;DHT22;2304;47.606;12.186;2022-08-21T08:14:08;21.20;70.70
4584;DHT22;2304;47.606;12.186;2022-08-21T08:19:10;21.50;71.90
4584;DHT22;2304;47.606;12.186;2022-08-21T08:24:12;21.80;70.50
4584;DHT22;2304;47.606;12.186;2022-08-21T08:29:16;22.00;69.20
4584;DHT22;2304;47.606;12.186;2022-08-21T08:34:18;22.30;71.00
4584;DHT22;2304;47.606;12.186;2022-08-21T08:39:22;22.70;69.10
4584;DHT22;2304;47.606;12.186;2022-08-21T08:44:25;23.00;68.20
4584;DHT22;2304;47.606;12.186;2022-08-21T08:49:31;23.30;65.50
4584;DHT22;2304;47.606;12.186;2022-08-21T08:54:40;23.60;65.80
4584;DHT22;2304;47.606;12.186;2022-08-21T08:59:46;23.80;63.70
4584;DHT22;2304;47.606;12.186;2022-08-21T09:04:50;24.00;66.40
4584;DHT22;2304;47.606;12.186;2022-08-21T09:10:05;24.10;62.00
4584;DHT22;2304;47.606;12.186;2022-08-21T09:15:19;24.30;60.00
4584;DHT22;2304;47.606;12.186;2022-08-21T09:20:29;24.60;60.30
4584;DHT22;2304;47.606;12.186;2022-08-21T09:25:42;24.80;60.00
4584;DHT22;2304;47.606;12.186;2022-08-21T09:30:45;25.10;57.90
4584;DHT22;2304;47.606;12.186;2022-08-21T09:35:51;25.50;59.10
4584;DHT22;2304;47.606;12.186;2022-08-21T09:40:58;25.80;59.70
4584;DHT22;2304;47.606;12.186;2022-08-21T09:46:06;26.10;55.50
4584;DHT22;2304;47.606;12.186;2022-08-21T09:51:10;26.10;56.80
4584;DHT22;2304;47.606;12.186;2022-08-21T09:56:24;26.30;53.50
4584;DHT22;2304;47.606;12.186;2022-08-21T10:01:48;26.40;57.80
4584;DHT22;2304;47.606;12.186;2022-08-21T10:06:50;26.80;57.30
4584;DHT22;2304;47.606;12.186;2022-08-21T10:12:05;27.00;55.10
4584;DHT22;2304;47.606;12.186;2022-08-21T10:17:17;27.30;55.80
4584;DHT22;2304;47.606;12.186;2022-08-21T10:22:29;27.70;59.00
4584;DHT22;2304;47.606;12.186;2022-08-21T10:27:39;27.90;51.60
4584;DHT22;2304;47.606;12.186;2022-08-21T10:32:57;28.20;52.80
4584;DHT22;2304;47.606;12.186;2022-08-21T10:38:46;28.50;51.50
4584;DHT22;2304;47.606;12.186;2022-08-21T10:43:57;28.60;49.80
4584;DHT22;2304;47.606;12.186;2022-08-21T10:49:14;28.80;49.20
4584;DHT22;2304;47.606;12.186;2022-08-21T10:54:25;28.70;46.70
4584;DHT22;2304;47.606;12.186;2022-08-21T10:59:32;28.60;48.70
4584;DHT22;2304;47.606;12.186;2022-08-21T11:04:52;28.70;46.70
4584;DHT22;2304;47.606;12.186;2022-08-21T11:09:58;29.20;48.40
4584;DHT22;2304;47.606;12.186;2022-08-21T11:15:06;29.10;45.70
4584;DHT22;2304;47.606;12.186;2022-08-21T11:20:21;29.30;47.00
4584;DHT22;2304;47.606;12.186;2022-08-21T11:25:29;29.40;43.00
4584;DHT22;2304;47.606;12.186;2022-08-21T11:30:47;28.80;46.10
4584;DHT22;2304;47.606;12.186;2022-08-21T11:35:54;28.10;47.20
4584;DHT22;2304;47.606;12.186;2022-08-21T11:41:22;27.60;47.90
4584;DHT22;2304;47.606;12.186;2022-08-21T11:46:31;27.30;47.00
4584;DHT22;2304;47.606;12.186;2022-08-21T11:51:38;27.10;48.70
4584;DHT22;2304;47.606;12.186;2022-08-21T11:56:46;27.30;46.60
4584;DHT22;2304;47.606;12.186;2022-08-21T12:01:50;27.50;45.30
4584;DHT22;2304;47.606;12.186;2022-08-21T12:06:54;27.60;48.10
4584;DHT22;2304;47.606;12.186;2022-08-21T12:12:01;28.10;49.40
4584;DHT22;2304;47.606;12.186;2022-08-21T12:17:05;28.50;47.80
4584;DHT22;2304;47.606;12.186;2022-08-21T12:22:11;28.60;44.40
4584;DHT22;2304;47.606;12.186;2022-08-21T12:27:21;28.80;47.40
4584;DHT22;2304;47.606;12.186;2022-08-21T12:32:27;28.90;46.20
4584;DHT22;2304;47.606;12.186;2022-08-21T12:37:37;29.00;45.60
4584;DHT22;2304;47.606;12.186;2022-08-21T12:42:43;28.90;43.90
4584;DHT22;2304;47.606;12.186;2022-08-21T12:47:53;28.80;41.60
4584;DHT22;2304;47.606;12.186;2022-08-21T12:53:04;28.70;43.60
4584;DHT22;2304;47.606;12.186;2022-08-21T12:58:17;28.70;42.30
4584;DHT22;2304;47.606;12.186;2022-08-21T13:03:19;28.70;43.70
4584;DHT22;2304;47.606;12.186;2022-08-21T13:08:25;28.80;41.50
4584;DHT22;2304;47.606;12.186;2022-08-21T13:13:28;28.80;41.90
4584;DHT22;2304;47.606;12.186;2022-08-21T13:18:33;28.80;42.10
4584;DHT22;2304;47.606;12.186;2022-08-21T13:23:36;28.80;39.20
4584;DHT22;2304;47.606;12.186;2022-08-21T13:28:38;28.90;43.30
4584;DHT22;2304;47.606;12.186;2022-08-21T13:33:41;28.90;42.40
4584;DHT22;2304;47.606;12.186;2022-08-21T13:38:45;28.90;41.50
4584;DHT22;2304;47.606;12.186;2022-08-21T13:43:50;28.90;39.70
4584;DHT22;2304;47.606;12.186;2022-08-21T13:48:53;28.80;42.70
4584;DHT22;2304;47.606;12.186;2022-08-21T13:53:57;28.80;41.10
4584;DHT22;2304;47.606;12.186;2022-08-21T13:59:02;28.90;43.60
4584;DHT22;2304;47.606;12.186;2022-08-21T14:04:07;29.00;43.10
4584;DHT22;2304;47.606;12.186;2022-08-21T14:09:32;28.90;40.50
4584;DHT22;2304;47.606;12.186;2022-08-21T14:14:35;28.90;39.10
4584;DHT22;2304;47.606;12.186;2022-08-21T14:19:39;28.80;41.30
4584;DHT22;2304;47.606;12.186;2022-08-21T14:24:42;28.70;42.40
4584;DHT22;2304;47.606;12.186;2022-08-21T14:29:44;28.80;42.00
4584;DHT22;2304;47.606;12.186;2022-08-21T14:34:46;28.80;41.10
4584;DHT22;2304;47.606;12.186;2022-08-21T14:39:50;28.70;41.00
4584;DHT22;2304;47.606;12.186;2022-08-21T14:44:54;28.60;40.20
4584;DHT22;2304;47.606;12.186;2022-08-21T14:49:58;28.60;41.00
4584;DHT22;2304;47.606;12.186;2022-08-21T14:55:01;28.60;40.90
4584;DHT22;2304;47.606;12.186;2022-08-21T15:00:04;28.50;40.50
4584;DHT22;2304;47.606;12.186;2022-08-21T15:05:07;28.30;41.10
4584;DHT22;2304;47.606;12.186;2022-08-21T15:10:11;28.20;42.10
4584;DHT22;2304;47.606;12.186;2022-08-21T15:15:13;28.10;42.20
4584;DHT22;2304;47.606;12.186;2022-08-21T15:20:15;28.10;42.50
4584;DHT22;2304;47.606;12.186;2022-08-21T15:25:18;28.00;42.70
4584;DHT22;2304;47.606;12.186;2022-08-21T15:30:20;27.60;42.00
4584;DHT22;2304;47.606;12.186;2022-08-21T15:35:22;27.40;42.90
4584;DHT22;2304;47.606;12.186;2022-08-21T15:40:26;27.40;44.30
4584;DHT22;2304;47.606;12.186;2022-08-21T15:45:28;27.40;44.40
4584;DHT22;2304;47.606;12.186;2022-08-21T15:50:30;27.10;44.90
4584;DHT22;2304;47.606;12.186;2022-08-21T15:55:34;27.00;46.10
4584;DHT22;2304;47.606;12.186;2022-08-21T16:00:36;26.80;45.10
4584;DHT22;2304;47.606;12.186;2022-08-21T16:05:38;26.70;45.60
4584;DHT22;2304;47.606;12.186;2022-08-21T16:10:42;26.60;46.20
4584;DHT22;2304;47.606;12.186;2022-08-21T16:15:44;26.50;46.60
4584;DHT22;2304;47.606;12.186;2022-08-21T16:20:46;26.30;47.60
4584;DHT22;2304;47.606;12.186;2022-08-21T16:25:49;26.20;48.00
4584;DHT22;2304;47.606;12.186;2022-08-21T16:30:51;26.10;49.30
4584;DHT22;2304;47.606;12.186;2022-08-21T16:35:53;25.90;48.70
4584;DHT22;2304;47.606;12.186;2022-08-21T16:40:56;25.90;48.70
4584;DHT22;2304;47.606;12.186;2022-08-21T16:45:59;25.80;50.10
4584;DHT22;2304;47.606;12.186;2022-08-21T16:51:01;25.70;49.30
4584;DHT22;2304;47.606;12.186;2022-08-21T16:56:06;25.50;50.40
4584;DHT22;2304;47.606;12.186;2022-08-21T17:01:10;25.50;51.00
4584;DHT22;2304;47.606;12.186;2022-08-21T17:06:15;25.30;51.00
4584;DHT22;2304;47.606;12.186;2022-08-21T17:11:22;25.10;52.00
4584;DHT22;2304;47.606;12.186;2022-08-21T17:16:26;25.00;52.40
4584;DHT22;2304;47.606;12.186;2022-08-21T17:21:29;25.00;52.20
4584;DHT22;2304;47.606;12.186;2022-08-21T17:26:32;24.90;52.30
4584;DHT22;2304;47.606;12.186;2022-08-21T17:31:35;24.90;53.10
4584;DHT22;2304;47.606;12.186;2022-08-21T17:36:37;24.80;53.20
4584;DHT22;2304;47.606;12.186;2022-08-21T17:41:40;24.70;54.00
4584;DHT22;2304;47.606;12.186;2022-08-21T17:46:42;24.60;54.50
4584;DHT22;2304;47.606;12.186;2022-08-21T17:51:44;24.60;56.60
4584;DHT22;2304;47.606;12.186;2022-08-21T17:56:49;24.50;55.30
4584;DHT22;2304;47.606;12.186;2022-08-21T18:01:51;24.40;56.10
4584;DHT22;2304;47.606;12.186;2022-08-21T18:06:57;24.30;55.60
4584;DHT22;2304;47.606;12.186;2022-08-21T18:12:00;24.20;55.90
4584;DHT22;2304;47.606;12.186;2022-08-21T18:17:06;24.10;57.20
4584;DHT22;2304;47.606;12.186;2022-08-21T18:22:09;24.10;58.00
4584;DHT22;2304;47.606;12.186;2022-08-21T18:27:12;24.10;59.10
4584;DHT22;2304;47.606;12.186;2022-08-21T18:32:16;24.10;58.50
4584;DHT22;2304;47.606;12.186;2022-08-21T18:37:20;24.00;59.50
4584;DHT22;2304;47.606;12.186;2022-08-21T18:42:24;24.00;60.40
4584;DHT22;2304;47.606;12.186;2022-08-21T18:47:28;23.90;60.50
4584;DHT22;2304;47.606;12.186;2022-08-21T18:52:33;23.70;61.70
4584;DHT22;2304;47.606;12.186;2022-08-21T18:57:37;23.70;61.60
4584;DHT22;2304;47.606;12.186;2022-08-21T19:02:41;23.50;62.60
4584;DHT22;2304;47.606;12.186;2022-08-21T19:07:43;23.40;64.40
4584;DHT22;2304;47.606;12.186;2022-08-21T19:12:47;23.20;64.70
4584;DHT22;2304;47.606;12.186;2022-08-21T19:17:50;23.20;63.90
4584;DHT22;2304;47.606;12.186;2022-08-21T19:22:53;23.20;63.70
4584;DHT22;2304;47.606;12.186;2022-08-21T19:27:58;23.10;63.80
4584;DHT22;2304;47.606;12.186;2022-08-21T19:33:00;23.00;65.00
4584;DHT22;2304;47.606;12.186;2022-08-21T19:38:02;22.90;64.20
4584;DHT22;2304;47.606;12.186;2022-08-21T19:43:05;22.90;65.10
4584;DHT22;2304;47.606;12.186;2022-08-21T19:48:09;22.80;65.60
4584;DHT22;2304;47.606;12.186;2022-08-21T19:53:11;22.70;65.60
4584;DHT22;2304;47.606;12.186;2022-08-21T19:58:27;22.60;66.70
4584;DHT22;2304;47.606;12.186;2022-08-21T20:03:32;22.50;66.80
4584;DHT22;2304;47.606;12.186;2022-08-21T20:08:34;22.50;66.10
4584;DHT22;2304;47.606;12.186;2022-08-21T20:13:38;22.40;65.80
4584;DHT22;2304;47.606;12.186;2022-08-21T20:18:40;22.30;65.80
4584;DHT22;2304;47.606;12.186;2022-08-21T20:23:42;22.20;66.10
4584;DHT22;2304;47.606;12.186;2022-08-21T20:28:46;22.20;65.50
4584;DHT22;2304;47.606;12.186;2022-08-21T20:33:49;22.00;66.60
4584;DHT22;2304;47.606;12.186;2022-08-21T20:38:51;21.90;67.40
4584;DHT22;2304;47.606;12.186;2022-08-21T20:43:55;21.90;67.60
4584;DHT22;2304;47.606;12.186;2022-08-21T20:48:57;21.90;67.40
4584;DHT22;2304;47.606;12.186;2022-08-21T20:54:04;21.80;67.50
4584;DHT22;2304;47.606;12.186;2022-08-21T20:59:18;21.80;67.70
4584;DHT22;2304;47.606;12.186;2022-08-21T21:04:33;21.80;67.80
4584;DHT22;2304;47.606;12.186;2022-08-21T21:09:41;21.70;67.50
4584;DHT22;2304;47.606;12.186;2022-08-21T21:14:46;21.70;67.80
4584;DHT22;2304;47.606;12.186;2022-08-21T21:19:52;21.60;66.70
4584;DHT22;2304;47.606;12.186;2022-08-21T21:24:59;21.50;67.10
4584;DHT22;2304;47.606;12.186;2022-08-21T21:30:08;21.50;68.20
4584;DHT22;2304;47.606;12.186;2022-08-21T21:35:13;21.40;67.80
4584;DHT22;2304;47.606;12.186;2022-08-21T21:40:28;21.40;68.20
4584;DHT22;2304;47.606;12.186;2022-08-21T21:45:41;21.30;68.50
4584;DHT22;2304;47.606;12.186;2022-08-21T21:50:54;21.20;68.50
4584;DHT22;2304;47.606;12.186;2022-08-21T21:56:05;21.10;68.80
4584;DHT22;2304;47.606;12.186;2022-08-21T22:01:12;21.00;69.40
4584;DHT22;2304;47.606;12.186;2022-08-21T22:06:22;21.00;70.00
4584;DHT22;2304;47.606;12.186;2022-08-21T22:11:32;20.90;69.00
4584;DHT22;2304;47.606;12.186;2022-08-21T22:16:41;20.90;69.80
4584;DHT22;2304;47.606;12.186;2022-08-21T22:21:49;20.90;69.70
4584;DHT22;2304;47.606;12.186;2022-08-21T22:26:57;20.90;69.30
4584;DHT22;2304;47.606;12.186;2022-08-21T22:32:05;20.80;69.60
4584;DHT22;2304;47.606;12.186;2022-08-21T22:37:09;20.80;70.00
4584;DHT22;2304;47.606;12.186;2022-08-21T22:42:19;20.70;69.80
4584;DHT22;2304;47.606;12.186;2022-08-21T22:47:25;20.70;69.30
4584;DHT22;2304;47.606;12.186;2022-08-21T22:52:32;20.70;69.40
4584;DHT22;2304;47.606;12.186;2022-08-21T22:57:35;20.60;70.30
4584;DHT22;2304;47.606;12.186;2022-08-21T23:02:43;20.50;68.90
4584;DHT22;2304;47.606;12.186;2022-08-21T23:07:46;20.50;70.30
4584;DHT22;2304;47.606;12.186;2022-08-21T23:12:58;20.50;70.60
4584;DHT22;2304;47.606;12.186;2022-08-21T23:18:10;20.40;71.00
4584;DHT22;2304;47.606;12.186;2022-08-21T23:23:16;20.40;71.20
4584;DHT22;2304;47.606;12.186;2022-08-21T23:28:33;20.40;71.00
4584;DHT22;2304;47.606;12.186;2022-08-21T23:33:57;20.40;70.50
4584;DHT22;2304;47.606;12.186;2022-08-21T23:39:11;20.20;71.30
4584;DHT22;2304;47.606;12.186;2022-08-21T23:44:36;20.30;71.20
4584;DHT22;2304;47.606;12.186;2022-08-21T23:49:49;20.20;70.90
4584;DHT22;2304;47.606;12.186;2022-08-21T23:55:06;20.10;71.20
